createdAt,value
2019-05-14T00:01:34.471Z,1.63
2019-05-14T00:04:02.082Z,1.03
2019-05-14T00:06:28.519Z,1.13
2019-05-14T00:08:54.929Z,1.10
2019-05-14T00:11:21.890Z,0.93
2019-05-14T00:13:48.286Z,1.50
2019-05-14T00:16:14.477Z,1.20
2019-05-14T00:18:42.010Z,1.23
2019-05-14T00:21:08.318Z,1.30
2019-05-14T00:23:34.823Z,1.27
2019-05-14T00:26:01.794Z,1.10
2019-05-14T00:28:31.553Z,1.33
2019-05-14T00:30:57.503Z,1.13
2019-05-14T00:33:23.678Z,1.20
2019-05-14T00:35:51.486Z,1.10
2019-05-14T00:38:18.019Z,1.07
2019-05-14T00:40:44.194Z,1.10
2019-05-14T00:43:11.398Z,1.20
2019-05-14T00:45:37.778Z,1.10
2019-05-14T00:48:03.942Z,1.10
2019-05-14T00:50:31.701Z,1.13
2019-05-14T00:52:58.418Z,1.17
2019-05-14T00:55:24.708Z,1.20
2019-05-14T00:57:52.178Z,1.57
2019-05-14T01:00:18.718Z,1.20
2019-05-14T01:02:44.922Z,1.37
2019-05-14T01:05:12.486Z,1.10
2019-05-14T01:07:38.924Z,1.30
2019-05-14T01:10:05.904Z,1.20
2019-05-14T01:12:32.186Z,1.20
2019-05-14T01:15:07.838Z,1.10
2019-05-14T01:17:26.687Z,1.73
2019-05-14T01:19:52.975Z,1.20
2019-05-14T01:22:21.260Z,1.30
2019-05-14T01:24:47.628Z,1.20
2019-05-14T01:27:13.801Z,1.30
2019-05-14T01:29:42.539Z,1.43
2019-05-14T01:32:11.464Z,1.60
2019-05-14T01:34:37.207Z,1.30
2019-05-14T01:37:03.411Z,1.53
2019-05-14T01:39:31.917Z,1.27
2019-05-14T01:41:57.550Z,1.50
2019-05-14T01:44:23.817Z,1.73
2019-05-14T01:46:51.242Z,1.20
2019-05-14T01:49:17.562Z,1.50
2019-05-14T01:51:43.910Z,1.93
2019-05-14T01:54:11.964Z,2.13
2019-05-14T01:56:38.525Z,1.83
2019-05-14T01:59:04.898Z,1.93
2019-05-14T02:01:31.483Z,2.13
2019-05-14T02:03:57.865Z,1.67
2019-05-14T02:06:24.207Z,1.70
2019-05-14T02:08:51.448Z,1.87
2019-05-14T02:11:17.859Z,1.57
2019-05-14T02:13:44.058Z,1.63
2019-05-14T02:16:13.041Z,1.37
2019-05-14T02:18:38.226Z,2.10
2019-05-14T02:21:04.418Z,2.17
2019-05-14T02:23:32.097Z,2.00
2019-05-14T02:25:58.482Z,1.87
2019-05-14T02:28:24.684Z,1.93
2019-05-14T02:30:58.116Z,2.00
2019-05-14T02:33:19.925Z,1.70
2019-05-14T02:35:49.132Z,2.80
2019-05-14T02:38:14.441Z,2.43
2019-05-14T02:40:40.689Z,1.60
2019-05-14T02:43:09.604Z,2.40
2019-05-14T02:45:45.026Z,2.33
2019-05-14T02:48:03.685Z,2.23
2019-05-14T02:50:29.919Z,3.30
2019-05-14T02:52:56.066Z,2.33
2019-05-14T02:55:22.239Z,2.83
2019-05-14T02:57:50.070Z,2.27
2019-05-14T03:00:19.326Z,2.30
2019-05-14T03:02:44.651Z,2.80
2019-05-14T03:05:11.260Z,2.50
2019-05-14T03:07:39.239Z,2.57
2019-05-14T03:10:05.412Z,3.77
2019-05-14T03:12:31.620Z,3.30
2019-05-14T03:14:58.870Z,2.53
2019-05-14T03:17:25.250Z,2.87
2019-05-14T03:19:51.456Z,2.50
2019-05-14T03:22:26.536Z,2.93
2019-05-14T03:24:45.599Z,3.60
2019-05-14T03:27:11.819Z,3.17
2019-05-14T03:29:39.702Z,3.50
2019-05-14T03:32:11.838Z,3.53
2019-05-14T03:34:34.438Z,3.63
2019-05-14T03:37:03.040Z,3.30
2019-05-14T03:39:29.611Z,5.03
2019-05-14T03:41:58.731Z,4.00
2019-05-14T03:44:24.055Z,3.43
2019-05-14T03:46:55.283Z,3.67
2019-05-14T03:49:19.808Z,3.53
2019-05-14T03:51:46.243Z,3.93
2019-05-14T03:54:13.058Z,3.53
2019-05-14T03:56:40.673Z,4.17
2019-05-14T03:59:09.603Z,4.93
2019-05-14T04:01:34.933Z,4.17
2019-05-14T04:04:01.128Z,4.30
2019-05-14T04:06:30.151Z,4.20
2019-05-14T04:08:55.704Z,4.10
2019-05-14T04:11:21.900Z,4.10
2019-05-14T04:13:49.661Z,3.77
2019-05-14T04:16:16.056Z,3.57
2019-05-14T04:18:43.067Z,4.70
2019-05-14T04:21:10.071Z,4.30
2019-05-14T04:23:39.613Z,3.63
2019-05-14T04:26:05.314Z,3.63
2019-05-14T04:28:32.487Z,3.53
2019-05-14T04:30:59.737Z,3.27
2019-05-14T04:33:29.947Z,2.93
2019-05-14T04:35:54.788Z,2.60
2019-05-14T04:38:21.219Z,3.00
2019-05-14T04:40:49.417Z,2.50
2019-05-14T04:43:19.035Z,2.80
2019-05-14T04:45:43.667Z,2.93
2019-05-14T04:48:27.943Z,2.40
2019-05-14T04:50:40.446Z,2.37
2019-05-14T04:53:08.894Z,2.00
2019-05-14T04:55:34.236Z,2.40
2019-05-14T04:58:00.507Z,2.57
2019-05-14T05:00:30.204Z,2.07
2019-05-14T05:02:55.839Z,2.53
2019-05-14T05:05:22.038Z,3.30
2019-05-14T05:07:49.216Z,2.80
2019-05-14T05:10:15.713Z,2.53
2019-05-14T05:12:42.683Z,2.80
2019-05-14T05:15:09.603Z,2.20
2019-05-14T05:17:46.615Z,2.33
2019-05-14T05:20:04.933Z,2.40
2019-05-14T05:22:31.106Z,2.73
2019-05-14T05:24:58.949Z,2.90
2019-05-14T05:27:25.394Z,3.30
2019-05-14T05:29:51.562Z,3.70
2019-05-14T05:32:19.441Z,2.60
2019-05-14T05:34:48.288Z,3.17
2019-05-14T05:37:14.210Z,2.50
2019-05-14T05:39:40.514Z,3.30
2019-05-14T05:42:08.984Z,2.30
2019-05-14T05:44:34.758Z,2.67
2019-05-14T05:47:01.383Z,3.17
2019-05-14T05:49:29.151Z,2.90
2019-05-14T05:51:55.545Z,2.77
2019-05-14T05:54:21.748Z,2.37
2019-05-14T05:56:48.275Z,2.63
2019-05-14T05:59:14.595Z,2.70
2019-05-14T06:01:46.014Z,2.17
2019-05-14T06:04:08.865Z,2.13
2019-05-14T06:06:35.188Z,2.27
2019-05-14T06:09:01.600Z,3.43
2019-05-14T06:11:29.015Z,2.80
2019-05-14T06:13:55.475Z,3.00
2019-05-14T06:16:21.674Z,2.53
2019-05-14T06:18:48.579Z,2.70
2019-05-14T06:21:15.136Z,2.63
2019-05-14T06:23:41.345Z,2.63
2019-05-14T06:26:11.397Z,2.67
2019-05-14T06:28:35.511Z,2.43
2019-05-14T06:31:01.728Z,2.70
2019-05-14T06:33:28.607Z,2.23
2019-05-14T06:35:55.762Z,1.70
2019-05-14T06:38:21.967Z,2.17
2019-05-14T06:40:48.922Z,3.03
2019-05-14T06:43:15.406Z,2.50
2019-05-14T06:45:41.673Z,2.53
2019-05-14T06:48:08.665Z,2.40
2019-05-14T06:50:35.166Z,2.20
2019-05-14T06:53:01.366Z,2.00
2019-05-14T06:55:28.418Z,2.50
2019-05-14T06:57:54.759Z,2.10
2019-05-14T07:00:21.219Z,1.67
2019-05-14T07:02:49.060Z,1.53
2019-05-14T07:05:15.432Z,1.33
2019-05-14T07:07:41.930Z,1.50
2019-05-14T07:10:08.933Z,1.53
2019-05-14T07:12:38.635Z,2.00
2019-05-14T07:15:04.397Z,1.73
2019-05-14T07:17:30.559Z,1.87
2019-05-14T07:19:58.182Z,2.27
2019-05-14T07:22:24.830Z,1.50
2019-05-14T07:24:51.005Z,1.30
2019-05-14T07:27:19.258Z,1.67
2019-05-14T07:29:45.204Z,1.33
2019-05-14T07:32:11.379Z,1.00
2019-05-14T07:34:38.929Z,1.20
2019-05-14T07:37:06.050Z,1.60
2019-05-14T07:39:32.252Z,2.57
2019-05-14T07:41:59.055Z,1.77
2019-05-14T07:44:25.684Z,1.10
2019-05-14T07:46:51.794Z,1.00
2019-05-14T07:49:18.437Z,1.00
2019-05-14T07:51:44.968Z,0.97
2019-05-14T07:54:11.434Z,1.97
2019-05-14T07:56:38.516Z,1.03
2019-05-14T07:59:05.021Z,1.23
2019-05-14T08:01:31.206Z,1.50
2019-05-14T08:04:00.202Z,1.40
2019-05-14T08:06:25.391Z,1.20
2019-05-14T08:08:51.567Z,1.30
2019-05-14T08:11:19.140Z,1.13
2019-05-14T08:13:45.645Z,1.10
2019-05-14T08:16:11.823Z,1.30
2019-05-14T08:18:39.533Z,1.43
2019-05-14T08:21:08.293Z,1.20
2019-05-14T08:23:33.990Z,0.90
2019-05-14T08:26:03.792Z,1.10
2019-05-14T08:28:29.081Z,1.40
2019-05-14T08:30:55.505Z,1.50
2019-05-14T08:33:21.665Z,1.10
2019-05-14T08:35:48.822Z,1.30
2019-05-14T08:38:15.627Z,1.60
2019-05-14T08:40:42.314Z,1.30
2019-05-14T08:43:08.723Z,1.20
2019-05-14T08:45:35.090Z,1.10
2019-05-14T08:48:01.363Z,1.63
2019-05-14T08:50:28.863Z,1.17
2019-05-14T08:52:55.043Z,1.10
2019-05-14T08:55:21.422Z,1.40
2019-05-14T08:57:48.999Z,1.10
2019-05-14T09:00:15.592Z,1.10
2019-05-14T09:02:41.977Z,1.10
2019-05-14T09:05:10.231Z,1.40
2019-05-14T09:07:38.357Z,1.10
2019-05-14T09:10:08.699Z,1.00
2019-05-14T09:12:34.833Z,1.07
2019-05-14T09:15:01.007Z,0.80
2019-05-14T09:17:28.866Z,1.27
2019-05-14T09:20:05.694Z,1.73
2019-05-14T09:22:23.558Z,0.90
2019-05-14T09:24:49.742Z,1.40
2019-05-14T09:27:15.962Z,1.00
2019-05-14T09:29:42.186Z,1.00
2019-05-14T09:32:09.635Z,1.23
2019-05-14T09:34:36.281Z,1.17
2019-05-14T09:37:02.543Z,1.43
2019-05-14T09:39:29.707Z,1.57
2019-05-14T09:41:58.022Z,1.20
2019-05-14T09:44:24.079Z,1.47
2019-05-14T09:46:50.256Z,1.30
2019-05-14T09:49:18.624Z,1.40
2019-05-14T09:51:44.543Z,1.20
2019-05-14T09:54:10.717Z,2.67
2019-05-14T09:56:39.317Z,1.47
2019-05-14T09:59:04.974Z,1.70
2019-05-14T10:01:31.311Z,1.43
2019-05-14T10:03:59.332Z,1.63
2019-05-14T10:06:28.285Z,1.50
2019-05-14T10:08:53.834Z,1.53
2019-05-14T10:11:20.030Z,1.47
2019-05-14T10:13:48.364Z,1.67
2019-05-14T10:16:14.771Z,1.80
2019-05-14T10:18:40.966Z,1.67
2019-05-14T10:21:08.610Z,1.40
2019-05-14T10:23:35.014Z,1.60
2019-05-14T10:26:01.722Z,1.17
2019-05-14T10:28:28.833Z,1.33
2019-05-14T10:30:55.396Z,0.90
2019-05-14T10:33:21.686Z,1.00
2019-05-14T10:35:48.500Z,1.60
2019-05-14T10:38:14.834Z,1.10
2019-05-14T10:40:41.510Z,1.23
2019-05-14T10:43:09.083Z,2.00
2019-05-14T10:45:35.599Z,1.63
2019-05-14T10:48:01.750Z,1.40
2019-05-14T10:50:28.944Z,1.27
2019-05-14T10:52:55.690Z,1.63
2019-05-14T10:55:22.026Z,1.47
2019-05-14T10:57:53.962Z,1.63
2019-05-14T11:00:18.505Z,1.67
2019-05-14T11:02:44.232Z,1.60
2019-05-14T11:05:11.920Z,1.50
2019-05-14T11:07:43.218Z,2.03
2019-05-14T11:10:09.589Z,1.97
2019-05-14T11:12:35.874Z,2.13
2019-05-14T11:15:04.647Z,2.40
2019-05-14T11:17:31.130Z,1.60
2019-05-14T11:19:58.666Z,1.60
2019-05-14T11:22:24.992Z,2.00
2019-05-14T11:24:51.174Z,1.53
2019-05-14T11:27:18.618Z,1.50
2019-05-14T11:29:45.049Z,1.50
2019-05-14T11:32:11.259Z,1.43
2019-05-14T11:34:38.965Z,1.63
2019-05-14T11:37:05.409Z,1.70
2019-05-14T11:39:31.602Z,2.37
2019-05-14T11:41:59.087Z,2.23
2019-05-14T11:44:25.499Z,3.23
2019-05-14T11:46:57.707Z,2.17
2019-05-14T11:49:19.706Z,3.07
2019-05-14T11:52:00.750Z,2.73
2019-05-14T11:54:14.166Z,2.40
2019-05-14T11:56:41.772Z,2.00
2019-05-14T11:59:08.671Z,2.77
2019-05-14T12:01:35.194Z,2.50
2019-05-14T12:04:01.541Z,2.53
2019-05-14T12:06:30.246Z,2.13
2019-05-14T12:08:58.133Z,2.80
2019-05-14T12:11:23.914Z,2.60
2019-05-14T12:13:50.115Z,2.23
2019-05-14T12:16:16.287Z,2.57
2019-05-14T12:18:42.455Z,2.70
2019-05-14T12:21:09.096Z,2.80
2019-05-14T12:23:35.862Z,3.17
2019-05-14T12:26:02.039Z,2.77
2019-05-14T12:28:29.134Z,3.03
2019-05-14T12:30:58.129Z,2.80
2019-05-14T12:33:23.732Z,2.93
2019-05-14T12:35:49.958Z,2.83
2019-05-14T12:38:18.556Z,2.73
2019-05-14T12:40:44.273Z,2.93
2019-05-14T12:43:11.004Z,3.10
2019-05-14T12:45:39.314Z,2.60
2019-05-14T12:48:05.185Z,2.43
2019-05-14T12:50:31.465Z,2.47
2019-05-14T12:52:58.818Z,2.90
2019-05-14T12:55:25.311Z,2.60
2019-05-14T12:57:51.537Z,1.53
2019-05-14T13:00:17.850Z,2.57
2019-05-14T13:02:44.012Z,3.20
2019-05-14T13:05:10.179Z,2.23
2019-05-14T13:07:41.436Z,2.07
2019-05-14T13:10:05.155Z,2.30
2019-05-14T13:12:31.427Z,3.70
2019-05-14T13:14:57.968Z,3.63
2019-05-14T13:17:24.170Z,2.80
2019-05-14T13:19:50.355Z,2.07
2019-05-14T13:22:20.715Z,2.47
2019-05-14T13:24:44.733Z,2.43
2019-05-14T13:27:10.898Z,2.77
2019-05-14T13:29:37.102Z,2.53
2019-05-14T13:32:03.353Z,2.43
2019-05-14T13:34:29.598Z,2.27
2019-05-14T13:36:55.860Z,2.73
2019-05-14T13:39:22.039Z,2.97
2019-05-14T13:41:48.674Z,1.93
2019-05-14T13:44:21.311Z,2.40
2019-05-14T13:46:43.543Z,2.10
2019-05-14T13:49:09.727Z,2.50
2019-05-14T13:51:38.578Z,1.70
2019-05-14T13:54:04.005Z,2.07
2019-05-14T13:56:30.170Z,2.17
2019-05-14T13:58:58.910Z,2.20
2019-05-14T14:01:24.346Z,2.60
2019-05-14T14:04:04.216Z,2.30
2019-05-14T14:06:20.657Z,1.60
2019-05-14T14:08:48.898Z,1.80
2019-05-14T14:11:14.650Z,1.87
2019-05-14T14:13:40.992Z,1.33
2019-05-14T14:16:13.799Z,2.47
2019-05-14T14:18:35.310Z,1.97
2019-05-14T14:21:01.616Z,1.83
2019-05-14T14:23:31.083Z,1.60
2019-05-14T14:25:57.146Z,1.67
2019-05-14T14:28:23.939Z,1.50
2019-05-14T14:30:50.230Z,2.17
2019-05-14T14:33:18.565Z,1.90
2019-05-14T14:35:44.415Z,1.60
2019-05-14T14:38:10.592Z,1.70
2019-05-14T14:40:39.371Z,1.83
2019-05-14T14:43:04.878Z,1.60
2019-05-14T14:45:31.601Z,1.77
2019-05-14T14:48:01.077Z,1.53
2019-05-14T14:50:28.698Z,1.83
2019-05-14T14:52:53.770Z,1.33
2019-05-14T14:55:19.962Z,1.20
2019-05-14T14:57:52.222Z,1.40
2019-05-14T15:00:14.294Z,1.47
2019-05-14T15:02:41.358Z,1.53
2019-05-14T15:05:12.887Z,1.33
2019-05-14T15:07:35.859Z,1.53
2019-05-14T15:10:04.131Z,2.00
2019-05-14T15:12:30.327Z,1.20
2019-05-14T15:14:59.419Z,1.70
2019-05-14T15:17:24.485Z,1.33
2019-05-14T15:19:50.696Z,1.33
2019-05-14T15:22:20.492Z,1.20
2019-05-14T15:24:44.963Z,1.53
2019-05-14T15:27:15.157Z,1.80
2019-05-14T15:29:42.844Z,1.77
2019-05-14T15:32:09.373Z,1.70
2019-05-14T15:34:35.472Z,1.23
2019-05-14T15:37:01.641Z,1.47
2019-05-14T15:39:30.174Z,1.47
2019-05-14T15:42:04.072Z,1.67
2019-05-14T15:44:23.975Z,1.97
2019-05-14T15:46:51.674Z,1.57
2019-05-14T15:49:19.188Z,1.93
2019-05-14T15:51:45.574Z,2.03
2019-05-14T15:54:34.990Z,1.87
2019-05-14T15:56:39.735Z,1.80
2019-05-14T15:59:08.771Z,2.27
2019-05-14T16:01:35.209Z,2.30
2019-05-14T16:04:01.408Z,2.07
2019-05-14T16:06:27.582Z,1.73
2019-05-14T16:08:53.759Z,2.10
2019-05-14T16:11:19.954Z,2.33
2019-05-14T16:13:46.315Z,2.13
2019-05-14T16:16:12.527Z,1.77
2019-05-14T16:18:38.738Z,1.70
2019-05-14T16:21:04.885Z,1.67
2019-05-14T16:23:31.059Z,1.77
2019-05-14T16:25:59.033Z,2.07
2019-05-14T16:28:25.334Z,1.87
2019-05-14T16:30:51.507Z,1.90
2019-05-14T16:33:18.691Z,1.57
2019-05-14T16:35:45.189Z,2.03
2019-05-14T16:38:11.367Z,2.00
2019-05-14T16:40:39.563Z,2.70
2019-05-14T16:43:05.773Z,2.03
2019-05-14T16:45:32.145Z,2.00
2019-05-14T16:47:59.353Z,2.40
2019-05-14T16:50:25.725Z,1.50
2019-05-14T16:52:52.004Z,2.03
2019-05-14T16:55:24.585Z,1.40
2019-05-14T16:57:46.195Z,1.93
2019-05-14T17:00:13.366Z,1.73
2019-05-14T17:02:41.815Z,1.70
2019-05-14T17:05:09.283Z,2.47
2019-05-14T17:07:38.301Z,1.97
2019-05-14T17:10:04.238Z,1.73
2019-05-14T17:12:46.927Z,1.77
2019-05-14T17:14:58.749Z,1.47
2019-05-14T17:17:24.982Z,2.03
2019-05-14T17:19:51.154Z,1.73
2019-05-14T17:22:27.600Z,2.20
2019-05-14T17:24:45.331Z,1.17
2019-05-14T17:27:11.498Z,1.50
2019-05-14T17:29:38.914Z,1.30
2019-05-14T17:32:05.490Z,1.93
2019-05-14T17:34:31.768Z,2.20
2019-05-14T17:36:59.382Z,1.50
2019-05-14T17:39:25.762Z,1.80
2019-05-14T17:41:51.943Z,1.63
2019-05-14T17:44:18.315Z,1.40
2019-05-14T17:46:44.582Z,1.80
2019-05-14T17:49:12.250Z,1.60
2019-05-14T17:51:39.117Z,1.87
2019-05-14T17:54:06.025Z,1.80
2019-05-14T17:56:32.206Z,1.13
2019-05-14T17:58:58.382Z,1.83
2019-05-14T18:01:24.612Z,2.33
2019-05-14T18:03:50.891Z,1.57
2019-05-14T18:06:18.923Z,2.00
2019-05-14T18:08:45.083Z,2.37
2019-05-14T18:11:11.255Z,1.80
2019-05-14T18:13:39.168Z,2.50
2019-05-14T18:16:05.522Z,2.30
2019-05-14T18:18:31.803Z,2.23
2019-05-14T18:20:58.392Z,2.23
2019-05-14T18:23:24.677Z,2.00
2019-05-14T18:26:03.334Z,1.93
2019-05-14T18:28:18.835Z,2.47
2019-05-14T18:30:45.183Z,3.20
2019-05-14T18:33:11.358Z,2.17
2019-05-14T18:35:45.431Z,2.30
2019-05-14T18:38:08.119Z,1.97
2019-05-14T18:40:33.787Z,2.40
2019-05-14T18:42:59.971Z,2.50
2019-05-14T18:45:26.339Z,2.67
2019-05-14T18:47:52.514Z,2.37
2019-05-14T18:50:19.722Z,3.23
2019-05-14T18:52:48.378Z,2.93
2019-05-14T18:55:14.336Z,2.53
2019-05-14T18:57:40.603Z,2.47
2019-05-14T19:00:07.014Z,2.47
2019-05-14T19:02:33.193Z,3.23
2019-05-14T19:04:59.370Z,2.77
2019-05-14T19:07:25.567Z,2.67
2019-05-14T19:09:51.754Z,3.27
2019-05-14T19:12:18.993Z,2.80
2019-05-14T19:14:45.534Z,2.87
2019-05-14T19:17:11.712Z,3.03
2019-05-14T19:19:38.635Z,2.10
2019-05-14T19:22:05.178Z,2.73
2019-05-14T19:24:31.357Z,2.53
2019-05-14T19:26:59.527Z,2.60
2019-05-14T19:29:28.022Z,2.50
2019-05-14T19:31:53.682Z,2.30
2019-05-14T19:34:19.896Z,2.53
2019-05-14T19:36:46.067Z,2.30
2019-05-14T19:39:12.238Z,2.50
2019-05-14T19:41:39.042Z,2.17
2019-05-14T19:44:05.315Z,2.63
2019-05-14T19:46:31.490Z,2.83
2019-05-14T19:48:59.103Z,2.87
2019-05-14T19:51:27.885Z,2.73
2019-05-14T19:53:54.179Z,3.40
2019-05-14T19:56:20.349Z,2.17
2019-05-14T19:58:46.677Z,2.80
2019-05-14T20:01:12.851Z,2.80
2019-05-14T20:03:39.025Z,2.80
2019-05-14T20:06:05.222Z,2.40
2019-05-14T20:08:31.395Z,3.30
2019-05-14T20:10:59.299Z,2.83
2019-05-14T20:13:28.439Z,2.53
2019-05-14T20:15:53.538Z,3.33
2019-05-14T20:18:19.882Z,3.00
2019-05-14T20:20:46.082Z,3.43
2019-05-14T20:23:12.259Z,2.40
2019-05-14T20:25:38.896Z,2.10
2019-05-14T20:28:05.410Z,3.83
2019-05-14T20:30:31.591Z,3.37
2019-05-14T20:32:59.252Z,2.97
2019-05-14T20:35:31.787Z,3.60
2019-05-14T20:37:53.697Z,3.70
2019-05-14T20:40:19.824Z,3.17
2019-05-14T20:42:46.023Z,3.60
2019-05-14T20:45:12.214Z,3.33
2019-05-14T20:47:39.137Z,5.70
2019-05-14T20:50:08.910Z,3.60
2019-05-14T20:52:36.118Z,4.03
2019-05-14T20:55:04.598Z,3.87
2019-05-14T20:57:33.483Z,4.37
2019-05-14T20:59:58.951Z,5.10
2019-05-14T21:02:25.397Z,5.77
2019-05-14T21:04:54.776Z,6.07
2019-05-14T21:07:19.832Z,5.37
2019-05-14T21:09:46.128Z,5.37
2019-05-14T21:12:12.561Z,6.70
2019-05-14T21:14:41.432Z,6.73
2019-05-14T21:17:08.537Z,6.87
2019-05-14T21:19:35.239Z,6.20
2019-05-14T21:22:01.569Z,5.80
2019-05-14T21:24:29.411Z,6.23
2019-05-14T21:26:58.243Z,5.97
2019-05-14T21:29:24.451Z,5.73
2019-05-14T21:31:50.886Z,6.53
2019-05-14T21:34:17.221Z,7.23
2019-05-14T21:36:44.879Z,6.00
2019-05-14T21:39:11.317Z,6.53
2019-05-14T21:41:38.623Z,7.27
2019-05-14T21:44:05.088Z,6.97
2019-05-14T21:46:31.719Z,6.53
2019-05-14T21:48:58.678Z,6.90
2019-05-14T21:51:25.213Z,8.50
2019-05-14T21:53:51.781Z,7.20
2019-05-14T21:56:21.692Z,8.80
2019-05-14T21:58:48.085Z,8.77
2019-05-14T22:01:14.630Z,7.77
2019-05-14T22:03:41.165Z,8.10
2019-05-14T22:06:08.889Z,7.23
2019-05-14T22:08:35.192Z,7.70
2019-05-14T22:11:01.694Z,7.63
2019-05-14T22:13:28.439Z,7.87
2019-05-14T22:15:54.865Z,8.90
2019-05-14T22:18:21.199Z,8.23
2019-05-14T22:20:48.287Z,8.53
2019-05-14T22:23:14.676Z,8.40
2019-05-14T22:25:41.008Z,8.00
2019-05-14T22:28:15.106Z,8.23
2019-05-14T22:30:35.611Z,8.57
2019-05-14T22:33:02.147Z,9.03
2019-05-14T22:35:31.303Z,8.37
2019-05-14T22:37:56.650Z,9.53
2019-05-14T22:40:23.084Z,9.20
2019-05-14T22:42:49.413Z,8.23
2019-05-14T22:45:15.846Z,8.93
2019-05-14T22:47:42.177Z,8.17
2019-05-14T22:50:08.952Z,9.43
2019-05-14T22:52:38.266Z,8.60
2019-05-14T22:55:05.471Z,9.80
2019-05-14T22:57:31.799Z,8.73
2019-05-14T22:59:58.193Z,9.30
2019-05-14T23:02:24.767Z,9.13
2019-05-14T23:04:51.097Z,9.10
2019-05-14T23:07:18.962Z,9.57
2019-05-14T23:09:45.498Z,9.77
2019-05-14T23:12:12.350Z,9.33
2019-05-14T23:14:39.083Z,9.03
2019-05-14T23:17:07.939Z,9.63
2019-05-14T23:19:33.789Z,9.93
2019-05-14T23:22:00.120Z,9.60
2019-05-14T23:24:28.434Z,10.23
2019-05-14T23:26:54.631Z,11.33
2019-05-14T23:29:20.966Z,10.67
2019-05-14T23:31:48.869Z,11.50
2019-05-14T23:34:15.356Z,11.10
2019-05-14T23:36:41.686Z,10.97
2019-05-14T23:39:08.807Z,12.27
2019-05-14T23:41:38.165Z,11.90
2019-05-14T23:44:03.747Z,11.23
2019-05-14T23:46:30.180Z,12.40
2019-05-14T23:48:56.511Z,11.53
2019-05-14T23:51:22.842Z,12.40
2019-05-14T23:53:49.378Z,11.63
2019-05-14T23:56:19.121Z,11.93
2019-05-14T23:58:54.735Z,11.53
